Time;durP1;ratioP1;P1;durP2;ratioP2;P2;SDS_P1;SDS_P2;PMS_P1;PMS_P2;Temp;Humidity;BMP_temperature;BMP_pressure;BME280_temperature;BME280_humidity;BME280_pressure;Samples;Min_cycle;Max_cycle;Signal;HPM_P1;HPM_P2
2023/05/25 00:01:47;;;;;;;;;;;;;;;7.56;100.00;96214.72;5061529;28;19984;-74
2023/05/25 00:04:15;;;;;;;;;;;;;;;7.52;100.00;96209.69;5065233;28;19935;-74
2023/05/25 00:06:44;;;;;;;;;;;;;;;7.56;100.00;96207.81;5064776;28;19932;-74
2023/05/25 00:09:10;;;;;;;;;;;;;;;7.58;100.00;96216.34;5059887;28;19924;-74
2023/05/25 00:11:36;;;;;;;;;;;;;;;7.51;100.00;96215.75;5047519;28;20454;-74
2023/05/25 00:14:03;;;;;;;;;;;;;;;7.47;100.00;96214.22;5055205;28;19934;-74
2023/05/25 00:16:30;;;;;;;;;;;;;;;7.46;100.00;96215.13;5046848;28;20323;-74
2023/05/25 00:18:58;;;;;;;;;;;;;;;7.54;100.00;96219.13;5061877;28;20307;-74
2023/05/25 00:21:25;;;;;;;;;;;;;;;7.57;100.00;96219.00;5053814;28;19932;-74
2023/05/25 00:23:51;;;;;;;;;;;;;;;7.56;100.00;96222.44;5059507;28;20079;-75
2023/05/25 00:26:17;;;;;;;;;;;;;;;7.56;100.00;96218.13;5055612;28;20291;-74
2023/05/25 00:28:43;;;;;;;;;;;;;;;7.56;100.00;96225.84;5043868;28;19929;-74
2023/05/25 00:31:10;;;;;;;;;;;;;;;7.57;100.00;96216.41;5063228;28;20345;-74
2023/05/25 00:33:36;;;;;;;;;;;;;;;7.62;100.00;96211.88;5046504;28;19940;-74
2023/05/25 00:36:05;;;;;;;;;;;;;;;7.66;100.00;96213.41;5059551;28;19981;-74
2023/05/25 00:38:31;;;;;;;;;;;;;;;7.60;100.00;96214.53;5040756;28;19932;-74
2023/05/25 00:40:57;;;;;;;;;;;;;;;7.65;100.00;96210.00;5060304;28;20299;-74
2023/05/25 00:43:23;;;;;;;;;;;;;;;7.69;100.00;96216.69;5048327;28;19929;-74
2023/05/25 00:45:50;;;;;;;;;;;;;;;7.66;100.00;96214.25;5054994;28;19933;-74
2023/05/25 00:48:16;;;;;;;;;;;;;;;7.66;100.00;96208.25;5064631;28;20450;-74
2023/05/25 00:50:44;;;;;;;;;;;;;;;7.62;100.00;96204.97;5056960;28;19995;-74
2023/05/25 00:53:12;;;;;;;;;;;;;;;7.48;100.00;96205.56;5048770;28;20001;-74
2023/05/25 00:55:40;;;;;;;;;;;;;;;7.59;100.00;96212.00;5037684;28;20362;-74
2023/05/25 00:58:08;;;;;;;;;;;;;;;7.77;100.00;96218.94;5059953;28;19928;-74
2023/05/25 01:00:35;;;;;;;;;;;;;;;7.95;100.00;96207.78;5058520;28;20372;-74
2023/05/25 01:03:04;;;;;;;;;;;;;;;7.85;100.00;96208.28;5049312;28;19970;-74
2023/05/25 01:05:33;;;;;;;;;;;;;;;8.08;100.00;96210.63;5045825;28;19928;-73
2023/05/25 01:08:02;;;;;;;;;;;;;;;7.98;100.00;96207.66;5056446;28;19925;-74
2023/05/25 01:10:31;;;;;;;;;;;;;;;7.66;100.00;96218.56;5056217;28;19929;-74
2023/05/25 01:12:59;;;;;;;;;;;;;;;7.78;100.00;96205.13;5053216;28;19947;-74
2023/05/25 01:15:26;;;;;;;;;;;;;;;7.42;100.00;96213.59;5049667;28;19933;-74
2023/05/25 01:17:52;;;;;;;;;;;;;;;7.53;100.00;96213.13;5047637;28;19939;-74
2023/05/25 01:20:19;;;;;;;;;;;;;;;7.66;100.00;96209.09;5062463;28;19936;-74
2023/05/25 01:22:51;;;;;;;;;;;;;;;7.52;100.00;96201.97;5053599;28;19951;-74
2023/05/25 01:25:20;;;;;;;;;;;;;;;7.59;100.00;96209.44;5055084;28;20471;-74
2023/05/25 01:27:48;;;;;;;;;;;;;;;7.60;100.00;96205.94;5042148;28;19925;-74
2023/05/25 01:30:15;;;;;;;;;;;;;;;7.60;100.00;96205.94;5049278;28;19955;-74
2023/05/25 01:32:42;;;;;;;;;;;;;;;7.57;100.00;96195.78;5052197;28;19929;-74
2023/05/25 01:35:09;;;;;;;;;;;;;;;7.67;100.00;96197.03;5057374;28;19935;-74
2023/05/25 01:37:36;;;;;;;;;;;;;;;7.49;100.00;96201.25;5049528;28;19986;-74
2023/05/25 01:40:05;;;;;;;;;;;;;;;7.13;100.00;96206.28;5052404;28;20375;-74
2023/05/25 01:42:31;;;;;;;;;;;;;;;6.88;100.00;96212.44;5046776;28;19956;-74
2023/05/25 01:44:58;;;;;;;;;;;;;;;6.71;100.00;96204.56;5057303;28;19925;-74
2023/05/25 01:47:29;;;;;;;;;;;;;;;6.59;100.00;96205.88;5053655;28;19925;-74
2023/05/25 01:49:59;;;;;;;;;;;;;;;6.66;100.00;96204.75;5064330;28;19925;-74
2023/05/25 01:52:26;;;;;;;;;;;;;;;6.72;100.00;96204.50;5059482;28;20296;-74
2023/05/25 01:54:54;;;;;;;;;;;;;;;6.91;100.00;96203.75;5048961;28;19929;-74
2023/05/25 01:57:24;;;;;;;;;;;;;;;7.00;100.00;96211.09;5057129;28;19944;-74
2023/05/25 01:59:52;;;;;;;;;;;;;;;7.09;100.00;96204.72;5054716;28;19925;-74
2023/05/25 02:02:19;;;;;;;;;;;;;;;7.00;100.00;96211.91;5057895;28;20295;-74
2023/05/25 02:04:45;;;;;;;;;;;;;;;6.92;100.00;96213.97;5052413;28;19932;-74
2023/05/25 02:07:12;;;;;;;;;;;;;;;6.89;100.00;96208.94;5061939;28;19925;-74
2023/05/25 02:09:38;;;;;;;;;;;;;;;6.91;100.00;96206.31;5056985;28;19929;-74
2023/05/25 02:12:05;;;;;;;;;;;;;;;6.97;100.00;96208.63;5040752;28;20302;-74
2023/05/25 02:14:32;;;;;;;;;;;;;;;7.05;100.00;96203.19;5056799;28;20022;-74
2023/05/25 02:17:00;;;;;;;;;;;;;;;7.08;100.00;96208.19;5041093;28;19932;-74
2023/05/25 02:19:27;;;;;;;;;;;;;;;7.11;100.00;96197.75;5052125;28;19925;-73
2023/05/25 02:21:53;;;;;;;;;;;;;;;6.99;100.00;96181.94;5049681;28;19929;-74
2023/05/25 02:24:19;;;;;;;;;;;;;;;7.14;100.00;96180.44;5054534;28;19932;-74
2023/05/25 02:26:45;;;;;;;;;;;;;;;7.19;100.00;96182.81;5046206;28;20415;-74
2023/05/25 02:29:12;;;;;;;;;;;;;;;7.19;100.00;96175.94;5045694;28;19986;-74
2023/05/25 02:31:39;;;;;;;;;;;;;;;7.17;100.00;96184.63;5048894;28;19929;-74
2023/05/25 02:34:06;;;;;;;;;;;;;;;7.13;100.00;96178.78;5041517;28;19970;-74
2023/05/25 02:36:33;;;;;;;;;;;;;;;6.97;100.00;96180.31;5058526;28;19935;-74
2023/05/25 02:38:59;;;;;;;;;;;;;;;6.90;100.00;96181.50;5047760;28;19982;-73
2023/05/25 02:41:26;;;;;;;;;;;;;;;6.82;100.00;96184.34;5053807;28;19933;-74
2023/05/25 02:43:52;;;;;;;;;;;;;;;6.83;100.00;96175.75;5058841;28;19932;-74
2023/05/25 02:46:18;;;;;;;;;;;;;;;6.94;100.00;96183.88;5056274;28;19928;-74
2023/05/25 02:48:47;;;;;;;;;;;;;;;7.15;100.00;96171.81;5056437;28;20367;-74
2023/05/25 02:51:13;;;;;;;;;;;;;;;7.31;100.00;96172.00;5058985;28;19928;-74
2023/05/25 02:53:40;;;;;;;;;;;;;;;7.02;100.00;96176.66;5059576;28;19936;-74
2023/05/25 02:56:09;;;;;;;;;;;;;;;7.19;100.00;96177.66;5050244;28;19924;-74
2023/05/25 02:58:36;;;;;;;;;;;;;;;7.35;100.00;96170.13;5056651;28;19929;-74
2023/05/25 03:01:03;;;;;;;;;;;;;;;7.41;100.00;96172.41;5055236;28;19931;-74
2023/05/25 03:03:30;;;;;;;;;;;;;;;7.41;100.00;96175.00;5053533;28;20360;-74
2023/05/25 03:05:57;;;;;;;;;;;;;;;7.49;100.00;96175.47;5050832;28;19936;-74
2023/05/25 03:08:24;;;;;;;;;;;;;;;7.58;100.00;96185.41;5062200;28;19936;-74
2023/05/25 03:10:50;;;;;;;;;;;;;;;7.55;100.00;96174.41;5053496;28;19932;-74
2023/05/25 03:13:16;;;;;;;;;;;;;;;7.57;100.00;96175.19;5048221;28;20288;-74
2023/05/25 03:15:42;;;;;;;;;;;;;;;7.63;100.00;96187.78;5053344;28;19925;-74
2023/05/25 03:18:09;;;;;;;;;;;;;;;7.60;100.00;96188.75;5047727;28;20057;-74
2023/05/25 03:20:35;;;;;;;;;;;;;;;7.58;100.00;96190.56;5058683;28;20004;-74
2023/05/25 03:23:03;;;;;;;;;;;;;;;7.63;100.00;96196.34;5054201;28;19932;-74
2023/05/25 03:25:29;;;;;;;;;;;;;;;7.57;100.00;96199.22;5046767;28;20384;-74
2023/05/25 03:27:56;;;;;;;;;;;;;;;7.63;100.00;96201.50;5048247;28;20299;-74
2023/05/25 03:30:22;;;;;;;;;;;;;;;7.60;100.00;96200.78;5052938;28;19925;-74
2023/05/25 03:32:48;;;;;;;;;;;;;;;7.57;100.00;96206.09;5059800;28;19935;-73
2023/05/25 03:35:15;;;;;;;;;;;;;;;7.41;100.00;96206.75;5057227;28;19935;-74
2023/05/25 03:37:41;;;;;;;;;;;;;;;7.45;100.00;96208.31;5054363;28;20399;-74
2023/05/25 03:40:10;;;;;;;;;;;;;;;7.33;100.00;96198.50;5046914;28;19925;-74
2023/05/25 03:42:36;;;;;;;;;;;;;;;7.39;100.00;96208.56;5058789;28;19932;-74
2023/05/25 03:45:02;;;;;;;;;;;;;;;7.38;100.00;96204.31;5052903;28;19976;-74
2023/05/25 03:47:29;;;;;;;;;;;;;;;7.38;100.00;96201.75;5051610;28;20409;-74
2023/05/25 03:49:55;;;;;;;;;;;;;;;7.37;100.00;96210.38;5064393;28;19929;-74
2023/05/25 03:52:21;;;;;;;;;;;;;;;7.36;100.00;96200.97;5053599;28;19924;-74
2023/05/25 03:54:48;;;;;;;;;;;;;;;7.42;100.00;96208.44;5051516;28;19925;-74
2023/05/25 03:57:16;;;;;;;;;;;;;;;7.44;100.00;96211.78;5060341;28;20295;-74
2023/05/25 03:59:42;;;;;;;;;;;;;;;7.32;100.00;96217.47;5047964;28;20007;-73
2023/05/25 04:02:08;;;;;;;;;;;;;;;7.25;100.00;96216.03;5046910;28;19944;-73
2023/05/25 04:04:34;;;;;;;;;;;;;;;6.91;100.00;96214.88;5056642;28;19925;-74
2023/05/25 04:07:01;;;;;;;;;;;;;;;7.13;100.00;96221.72;5061518;28;19932;-74
2023/05/25 04:09:27;;;;;;;;;;;;;;;7.24;100.00;96222.94;5056096;28;19932;-74
2023/05/25 04:11:53;;;;;;;;;;;;;;;7.28;100.00;96211.59;5048447;28;19929;-73
2023/05/25 04:14:21;;;;;;;;;;;;;;;7.21;100.00;96217.09;5060674;28;20291;-73
2023/05/25 04:16:47;;;;;;;;;;;;;;;7.40;100.00;96217.97;5051399;28;19928;-74
2023/05/25 04:19:13;;;;;;;;;;;;;;;7.37;100.00;96218.09;5061471;28;19929;-74
2023/05/25 04:21:40;;;;;;;;;;;;;;;7.48;100.00;96212.47;5043246;28;19983;-74
2023/05/25 04:24:06;;;;;;;;;;;;;;;7.38;100.00;96214.63;5061579;28;19947;-73
2023/05/25 04:26:33;;;;;;;;;;;;;;;7.44;100.00;96206.63;5049305;28;19936;-73
2023/05/25 04:29:00;;;;;;;;;;;;;;;7.43;100.00;96214.44;5051218;28;19959;-74
2023/05/25 04:31:28;;;;;;;;;;;;;;;7.54;100.00;96219.13;5048234;28;19925;-73
2023/05/25 04:33:54;;;;;;;;;;;;;;;7.36;100.00;96221.56;5045600;28;19936;-73
2023/05/25 04:36:21;;;;;;;;;;;;;;;7.56;100.00;96218.13;5061304;28;19946;-73
2023/05/25 04:38:47;;;;;;;;;;;;;;;7.69;100.00;96216.69;5060459;28;20584;-73
2023/05/25 04:41:13;;;;;;;;;;;;;;;7.73;100.00;96219.97;5054308;28;20402;-74
2023/05/25 04:43:40;;;;;;;;;;;;;;;7.98;100.00;96217.97;5044069;28;20411;-73
2023/05/25 04:46:07;;;;;;;;;;;;;;;7.94;100.00;96216.44;5044144;28;19925;-73
2023/05/25 04:48:37;;;;;;;;;;;;;;;8.02;100.00;96218.69;5050439;28;19929;-73
2023/05/25 04:51:05;;;;;;;;;;;;;;;8.17;100.00;96217.13;5047450;28;19931;-75
2023/05/25 04:53:32;;;;;;;;;;;;;;;8.38;100.00;96223.06;5044736;28;20435;-75
2023/05/25 04:55:58;;;;;;;;;;;;;;;8.43;100.00;96218.53;5043235;28;19976;-75
2023/05/25 04:58:25;;;;;;;;;;;;;;;8.28;100.00;96219.22;5040695;28;19972;-75
2023/05/25 05:00:51;;;;;;;;;;;;;;;8.31;100.00;96213.94;5044143;28;19974;-75
2023/05/25 05:03:17;;;;;;;;;;;;;;;8.29;100.00;96224.31;5051816;28;19925;-75
2023/05/25 05:05:45;;;;;;;;;;;;;;;8.36;100.00;96225.69;5059907;28;20406;-75
2023/05/25 05:08:11;;;;;;;;;;;;;;;8.52;100.00;96230.16;5055629;28;19970;-75
2023/05/25 05:10:38;;;;;;;;;;;;;;;8.60;100.00;96228.06;5051533;28;19929;-75
2023/05/25 05:13:04;;;;;;;;;;;;;;;8.56;100.00;96236.84;5050925;28;19925;-75
2023/05/25 05:15:30;;;;;;;;;;;;;;;8.65;100.00;96231.28;5049432;28;19955;-76
2023/05/25 05:17:57;;;;;;;;;;;;;;;8.64;100.00;96243.34;5051543;28;20391;-75
2023/05/25 05:20:23;;;;;;;;;;;;;;;8.75;100.00;96242.84;5049015;28;20292;-76
2023/05/25 05:22:52;;;;;;;;;;;;;;;8.91;100.00;96246.34;5053723;28;19959;-76
2023/05/25 05:25:18;;;;;;;;;;;;;;;8.77;100.00;96240.16;5055848;28;20341;-76
2023/05/25 05:27:44;;;;;;;;;;;;;;;9.00;100.00;96252.78;5061198;28;20386;-76
2023/05/25 05:30:11;;;;;;;;;;;;;;;9.20;100.00;96254.41;5051191;28;19925;-76
2023/05/25 05:32:37;;;;;;;;;;;;;;;9.06;100.00;96255.09;5050589;28;19925;-76
2023/05/25 05:35:04;;;;;;;;;;;;;;;9.31;100.00;96267.66;5061498;28;19981;-76
2023/05/25 05:37:30;;;;;;;;;;;;;;;9.25;100.00;96273.09;5064123;28;19938;-75
2023/05/25 05:39:58;;;;;;;;;;;;;;;9.05;100.00;96266.34;5050323;28;19933;-75
2023/05/25 05:42:24;;;;;;;;;;;;;;;9.28;100.00;96264.38;5055403;28;19925;-75
2023/05/25 05:44:50;;;;;;;;;;;;;;;9.37;100.00;96269.91;5049553;28;19929;-75
2023/05/25 05:47:17;;;;;;;;;;;;;;;9.81;100.00;96269.41;5055089;28;19924;-75
2023/05/25 05:49:43;;;;;;;;;;;;;;;10.06;100.00;96276.72;5056870;28;20016;-75
2023/05/25 05:52:09;;;;;;;;;;;;;;;10.09;100.00;96278.31;5054168;28;19977;-74
2023/05/25 05:54:36;;;;;;;;;;;;;;;10.49;100.00;96276.19;5048711;28;20502;-75
2023/05/25 05:57:03;;;;;;;;;;;;;;;10.53;100.00;96281.16;5060322;28;20462;-75
2023/05/25 05:59:30;;;;;;;;;;;;;;;10.61;100.00;96289.34;5057175;28;20529;-76
2023/05/25 06:01:56;;;;;;;;;;;;;;;10.61;100.00;96285.91;5052134;28;19994;-76
2023/05/25 06:04:24;;;;;;;;;;;;;;;10.71;100.00;96292.25;5048882;28;19933;-76
2023/05/25 06:06:50;;;;;;;;;;;;;;;10.43;100.00;96292.91;5060319;28;20379;-76
2023/05/25 06:09:17;;;;;;;;;;;;;;;10.25;100.00;96297.31;5055070;28;19925;-77
2023/05/25 06:11:43;;;;;;;;;;;;;;;10.09;100.00;96296.44;5045138;28;20414;-77
2023/05/25 06:14:11;;;;;;;;;;;;;;;10.31;100.00;96291.84;5058652;28;19932;-77
2023/05/25 06:16:37;;;;;;;;;;;;;;;10.65;100.00;96296.00;5046437;28;19925;-77
2023/05/25 06:19:04;;;;;;;;;;;;;;;10.88;100.00;96302.53;5061204;28;19925;-77
2023/05/25 06:21:30;;;;;;;;;;;;;;;10.92;100.00;96300.59;5053696;28;20394;-77
2023/05/25 06:23:57;;;;;;;;;;;;;;;11.15;100.00;96304.47;5067549;28;19929;-76
2023/05/25 06:26:23;;;;;;;;;;;;;;;11.37;100.00;96304.94;5050335;28;19988;-77
2023/05/25 06:28:50;;;;;;;;;;;;;;;11.53;100.00;96312.69;5057065;28;19928;-76
2023/05/25 06:31:17;;;;;;;;;;;;;;;11.44;100.00;96313.19;5060126;28;19987;-76
2023/05/25 06:33:44;;;;;;;;;;;;;;;11.69;100.00;96304.00;5054457;28;19924;-76
2023/05/25 06:36:10;;;;;;;;;;;;;;;11.73;99.93;96314.09;5052901;28;19932;-76
2023/05/25 06:38:36;;;;;;;;;;;;;;;11.99;100.00;96303.97;5040993;28;20518;-76
2023/05/25 06:41:04;;;;;;;;;;;;;;;11.82;99.41;96304.94;5060757;28;19982;-75
2023/05/25 06:43:30;;;;;;;;;;;;;;;11.79;100.00;96318.94;5049253;28;19933;-75
2023/05/25 06:45:57;;;;;;;;;;;;;;;11.88;98.66;96322.78;5041083;28;19925;-76
2023/05/25 06:48:24;;;;;;;;;;;;;;;12.02;98.06;96319.38;5053726;28;19932;-75
2023/05/25 06:50:51;;;;;;;;;;;;;;;11.90;98.33;96320.09;5057705;28;19936;-75
2023/05/25 06:53:17;;;;;;;;;;;;;;;12.28;100.00;96318.63;5045279;28;19932;-76
2023/05/25 06:55:43;;;;;;;;;;;;;;;12.00;97.52;96323.81;5043959;28;19933;-72
2023/05/25 06:58:10;;;;;;;;;;;;;;;11.92;99.82;96320.84;5052857;28;20063;-76
2023/05/25 07:00:36;;;;;;;;;;;;;;;12.51;99.20;96319.81;5047550;28;19964;-76
2023/05/25 07:03:03;;;;;;;;;;;;;;;12.77;100.00;96322.56;5057339;28;19951;-79
2023/05/25 07:05:30;;;;;;;;;;;;;;;12.24;95.77;96318.91;5055837;28;19947;-79
2023/05/25 07:07:56;;;;;;;;;;;;;;;12.03;97.92;96315.84;5061749;28;19925;-79
2023/05/25 07:10:23;;;;;;;;;;;;;;;12.21;100.00;96313.91;5058376;28;19933;-79
2023/05/25 07:12:49;;;;;;;;;;;;;;;12.37;100.00;96317.22;5056487;28;19925;-79
2023/05/25 07:15:15;;;;;;;;;;;;;;;12.78;97.04;96304.25;5068943;28;19947;-78
2023/05/25 07:17:42;;;;;;;;;;;;;;;13.27;100.00;96305.53;5062611;28;19925;-78
2023/05/25 07:20:09;;;;;;;;;;;;;;;13.12;95.19;96317.72;5054242;28;19939;-79
2023/05/25 07:22:36;;;;;;;;;;;;;;;12.64;93.57;96316.44;5066656;28;19925;-78
2023/05/25 07:25:03;;;;;;;;;;;;;;;12.47;100.00;96320.94;5065075;28;20323;-78
2023/05/25 07:27:30;;;;;;;;;;;;;;;12.44;98.50;96325.50;5061133;28;19932;-79
2023/05/25 07:29:56;;;;;;;;;;;;;;;12.53;99.45;96332.69;5057745;28;19944;-77
2023/05/25 07:32:22;;;;;;;;;;;;;;;11.90;100.00;96338.25;5062228;28;19970;-78
2023/05/25 07:34:49;;;;;;;;;;;;;;;12.29;100.00;96341.06;5065488;28;19924;-77
2023/05/25 07:37:15;;;;;;;;;;;;;;;12.04;100.00;96338.28;5064946;28;19925;-78
2023/05/25 07:39:43;;;;;;;;;;;;;;;12.29;100.00;96333.28;5052435;28;19928;-79
2023/05/25 07:42:09;;;;;;;;;;;;;;;12.25;100.00;96336.16;5055670;28;20413;-77
2023/05/25 07:44:36;;;;;;;;;;;;;;;11.94;100.00;96344.94;5063872;28;19925;-78
2023/05/25 07:47:02;;;;;;;;;;;;;;;11.99;100.00;96348.09;5064500;28;19925;-80
2023/05/25 07:49:28;;;;;;;;;;;;;;;11.84;100.00;96342.88;5071454;28;19932;-80
2023/05/25 07:51:54;;;;;;;;;;;;;;;12.20;100.00;96339.03;5066698;28;19928;-80
2023/05/25 07:54:21;;;;;;;;;;;;;;;12.37;100.00;96344.97;5061722;28;19925;-79
2023/05/25 07:56:48;;;;;;;;;;;;;;;12.29;100.00;96346.25;5063702;28;19932;-78
2023/05/25 07:59:15;;;;;;;;;;;;;;;12.38;100.00;96349.22;5060283;28;19925;-80
2023/05/25 08:01:41;;;;;;;;;;;;;;;12.25;100.00;96347.38;5063159;28;19931;-77
2023/05/25 08:04:07;;;;;;;;;;;;;;;12.08;100.00;96353.56;5058627;28;20292;-77
2023/05/25 08:06:34;;;;;;;;;;;;;;;12.39;100.00;96351.75;5058878;28;19932;-77
2023/05/25 08:09:00;;;;;;;;;;;;;;;12.37;100.00;96353.59;5056798;28;20399;-78
2023/05/25 08:11:26;;;;;;;;;;;;;;;12.23;100.00;96344.03;5048130;28;20272;-78
2023/05/25 08:13:54;;;;;;;;;;;;;;;12.62;100.00;96349.50;5057626;28;19936;-77
2023/05/25 08:16:21;;;;;;;;;;;;;;;12.68;100.00;96347.38;5060085;28;19952;-78
2023/05/25 08:18:47;;;;;;;;;;;;;;;13.06;100.00;96341.53;5061866;28;19933;-77
2023/05/25 08:21:14;;;;;;;;;;;;;;;13.27;100.00;96344.53;5055972;28;21043;-77
2023/05/25 08:23:41;;;;;;;;;;;;;;;13.22;100.00;96346.59;5057866;28;19932;-78
2023/05/25 08:26:07;;;;;;;;;;;;;;;13.24;100.00;96356.00;5061757;28;19924;-77
2023/05/25 08:28:33;;;;;;;;;;;;;;;12.89;98.76;96354.75;5043422;28;19929;-78
2023/05/25 08:31:01;;;;;;;;;;;;;;;13.13;99.28;96350.63;5059308;28;19936;-77
2023/05/25 08:33:27;;;;;;;;;;;;;;;13.62;100.00;96355.28;5053628;28;20340;-78
2023/05/25 08:35:54;;;;;;;;;;;;;;;13.20;99.37;96351.88;5067181;28;20386;-77
2023/05/25 08:38:23;;;;;;;;;;;;;;;13.54;97.97;96357.56;5054287;28;20392;-76
2023/05/25 08:40:56;;;;;;;;;;;;;;;13.90;97.16;96358.66;5063158;28;19971;-78
2023/05/25 08:43:22;;;;;;;;;;;;;;;14.59;100.00;96361.81;5063536;28;19936;-77
2023/05/25 08:45:49;;;;;;;;;;;;;;;15.03;98.08;96353.47;5051165;28;20280;-78
2023/05/25 08:48:19;;;;;;;;;;;;;;;15.26;100.00;96364.88;5060012;28;20002;-78
2023/05/25 08:50:47;;;;;;;;;;;;;;;15.38;94.43;96355.31;5060332;28;20000;-78
2023/05/25 08:53:14;;;;;;;;;;;;;;;15.41;92.42;96358.53;5065088;28;19928;-78
2023/05/25 08:55:42;;;;;;;;;;;;;;;15.54;88.38;96363.72;5056075;28;20326;-82
2023/05/25 08:58:11;;;;;;;;;;;;;;;15.59;99.77;96360.75;5060406;28;19944;-82
2023/05/25 09:00:42;;;;;;;;;;;;;;;15.92;96.73;96365.28;5048880;28;19929;-79
2023/05/25 09:03:11;;;;;;;;;;;;;;;16.00;93.18;96362.13;5043079;28;20416;-79
2023/05/25 09:05:39;;;;;;;;;;;;;;;15.64;87.84;96364.69;5056174;28;19983;-78
2023/05/25 09:08:06;;;;;;;;;;;;;;;15.86;92.92;96368.34;5062658;28;19944;-79
2023/05/25 09:10:32;;;;;;;;;;;;;;;15.98;95.64;96362.22;5069123;28;19991;-78
2023/05/25 09:12:59;;;;;;;;;;;;;;;15.65;90.79;96361.19;5060455;28;19964;-78
2023/05/25 09:15:25;;;;;;;;;;;;;;;16.01;96.12;96366.38;5062261;28;20383;-78
2023/05/25 09:17:51;;;;;;;;;;;;;;;16.21;93.37;96366.56;5054316;28;19986;-78
2023/05/25 09:20:19;;;;;;;;;;;;;;;16.17;85.60;96372.13;5061314;28;19954;-78
2023/05/25 09:22:46;;;;;;;;;;;;;;;15.87;87.48;96368.25;5057757;28;19931;-77
2023/05/25 09:25:14;;;;;;;;;;;;;;;15.67;94.74;96372.31;5062000;28;19935;-77
2023/05/25 09:27:41;;;;;;;;;;;;;;;15.65;88.63;96370.75;5056038;28;20401;-77
2023/05/25 09:30:08;;;;;;;;;;;;;;;15.37;89.72;96366.72;5052510;28;19929;-77
2023/05/25 09:32:35;;;;;;;;;;;;;;;15.39;96.32;96365.66;5050224;28;19928;-77
2023/05/25 09:35:06;;;;;;;;;;;;;;;15.27;94.35;96363.09;5059879;28;19924;-77
2023/05/25 09:37:33;;;;;;;;;;;;;;;15.34;93.27;96369.53;5054567;28;19998;-77
2023/05/25 09:40:00;;;;;;;;;;;;;;;15.82;94.32;96369.53;5058043;28;19925;-77
2023/05/25 09:42:27;;;;;;;;;;;;;;;15.27;89.68;96374.34;5061606;28;19925;-76
2023/05/25 09:44:53;;;;;;;;;;;;;;;14.86;92.07;96369.47;5052624;28;19929;-76
2023/05/25 09:47:19;;;;;;;;;;;;;;;15.17;92.94;96381.19;5053817;28;19924;-78
2023/05/25 09:49:48;;;;;;;;;;;;;;;15.27;94.23;96384.78;5041915;28;19925;-78
2023/05/25 09:52:15;;;;;;;;;;;;;;;15.18;96.60;96380.25;5062289;28;19928;-79
2023/05/25 09:54:43;;;;;;;;;;;;;;;14.95;92.88;96376.66;5041666;28;19929;-78
2023/05/25 09:57:11;;;;;;;;;;;;;;;15.00;94.23;96380.59;5055671;28;19924;-78
2023/05/25 09:59:37;;;;;;;;;;;;;;;15.35;92.00;96389.47;5058765;28;19970;-79
2023/05/25 10:02:04;;;;;;;;;;;;;;;15.32;96.58;96381.88;5054211;28;19924;-78
2023/05/25 10:04:30;;;;;;;;;;;;;;;15.43;89.76;96387.16;5054385;28;19925;-79
2023/05/25 10:06:57;;;;;;;;;;;;;;;15.15;91.09;96388.28;5060562;28;19931;-78
2023/05/25 10:09:24;;;;;;;;;;;;;;;15.18;94.53;96381.06;5053154;28;20157;-79
2023/05/25 10:11:51;;;;;;;;;;;;;;;15.57;97.26;96394.78;5056901;28;19995;-78
2023/05/25 10:14:21;;;;;;;;;;;;;;;15.49;91.06;96394.53;5053037;28;20390;-78
2023/05/25 10:16:50;;;;;;;;;;;;;;;15.68;91.31;96399.25;5063126;28;19929;-78
2023/05/25 10:19:20;;;;;;;;;;;;;;;15.91;89.79;96392.38;5063446;28;19978;-79
2023/05/25 10:21:51;;;;;;;;;;;;;;;15.72;89.92;96392.88;5049002;28;20344;-78
2023/05/25 10:24:24;;;;;;;;;;;;;;;15.94;88.46;96387.75;5067853;28;19928;-78
2023/05/25 10:26:53;;;;;;;;;;;;;;;16.17;89.89;96388.66;5055703;28;19925;-78
2023/05/25 10:29:23;;;;;;;;;;;;;;;16.44;89.56;96382.25;5055856;28;19932;-78
2023/05/25 10:31:50;;;;;;;;;;;;;;;16.28;86.65;96382.59;5057596;28;19975;-79
2023/05/25 10:34:17;;;;;;;;;;;;;;;16.20;85.16;96384.94;5058882;28;20272;-79
2023/05/25 10:36:43;;;;;;;;;;;;;;;15.96;87.87;96382.41;5062555;28;19975;-78
2023/05/25 10:39:09;;;;;;;;;;;;;;;15.95;89.06;96386.81;5052566;28;19924;-78
2023/05/25 10:41:36;;;;;;;;;;;;;;;15.88;88.12;96395.22;5061125;28;19925;-78
2023/05/25 10:44:02;;;;;;;;;;;;;;;15.87;88.51;96391.78;5060980;28;19925;-78
2023/05/25 10:46:30;;;;;;;;;;;;;;;16.19;89.62;96391.97;5058602;28;20322;-78
2023/05/25 10:49:01;;;;;;;;;;;;;;;16.32;92.13;96396.28;5060829;28;20454;-78
2023/05/25 10:51:36;;;;;;;;;;;;;;;16.36;93.40;96395.94;5065191;28;19925;-78
2023/05/25 10:54:02;;;;;;;;;;;;;;;16.52;90.64;96400.81;5049444;28;19983;-78
2023/05/25 10:56:29;;;;;;;;;;;;;;;16.76;91.49;96387.66;5057321;28;20299;-78
2023/05/25 10:58:55;;;;;;;;;;;;;;;16.94;94.87;96393.22;5056121;28;19928;-78
2023/05/25 11:01:22;;;;;;;;;;;;;;;17.05;87.87;96389.78;5060929;28;19924;-78
2023/05/25 11:03:53;;;;;;;;;;;;;;;16.91;89.53;96386.47;5063713;28;20407;-78
2023/05/25 11:06:20;;;;;;;;;;;;;;;16.74;85.79;96396.56;5058408;28;20007;-78
2023/05/25 11:08:51;;;;;;;;;;;;;;;16.68;88.17;96397.84;5062844;28;19936;-78
2023/05/25 11:11:17;;;;;;;;;;;;;;;16.91;91.64;96399.56;5055802;28;19925;-78
2023/05/25 11:13:44;;;;;;;;;;;;;;;16.89;87.88;96401.44;5059713;28;19978;-78
2023/05/25 11:16:17;;;;;;;;;;;;;;;17.01;89.68;96402.25;5054798;28;20272;-78
2023/05/25 11:18:45;;;;;;;;;;;;;;;17.03;85.18;96402.16;5059660;28;20326;-79
2023/05/25 11:21:13;;;;;;;;;;;;;;;16.99;83.05;96398.13;5061119;28;20361;-78
2023/05/25 11:23:51;;;;;;;;;;;;;;;17.23;91.09;96395.34;5061246;28;19989;-78
2023/05/25 11:26:20;;;;;;;;;;;;;;;17.01;82.98;96397.03;5056530;28;19955;-78
2023/05/25 11:28:47;;;;;;;;;;;;;;;17.06;83.23;96389.66;5040273;28;19931;-78
2023/05/25 11:31:13;;;;;;;;;;;;;;;17.26;83.55;96388.06;5058193;28;19928;-77
2023/05/25 11:33:40;;;;;;;;;;;;;;;17.39;83.16;96391.38;5060259;28;20510;-73
2023/05/25 11:36:07;;;;;;;;;;;;;;;17.60;89.08;96391.44;5054537;28;19924;-78
2023/05/25 11:38:36;;;;;;;;;;;;;;;17.65;90.07;96389.28;5047376;28;19929;-78
2023/05/25 11:41:03;;;;;;;;;;;;;;;17.42;81.83;96391.13;5063866;28;20421;-79
2023/05/25 11:43:31;;;;;;;;;;;;;;;17.25;81.87;96390.81;5059778;28;19929;-78
2023/05/25 11:45:59;;;;;;;;;;;;;;;17.43;84.50;96389.34;5063404;28;19937;-76
2023/05/25 11:48:25;;;;;;;;;;;;;;;17.61;88.92;96398.34;5056933;28;19929;-76
2023/05/25 11:51:03;;;;;;;;;;;;;;;17.72;87.91;96394.84;5058727;28;19925;-77
2023/05/25 11:53:30;;;;;;;;;;;;;;;17.56;84.02;96392.63;5060030;27;19968;-75
2023/05/25 11:55:57;;;;;;;;;;;;;;;17.46;84.36;96394.31;5045924;28;20418;-76
2023/05/25 11:58:24;;;;;;;;;;;;;;;17.59;85.85;96395.00;5062307;28;19925;-76
2023/05/25 12:00:50;;;;;;;;;;;;;;;17.65;83.76;96389.28;5052948;28;19932;-76
2023/05/25 12:03:28;;;;;;;;;;;;;;;17.52;79.21;96393.84;5049953;28;19925;-76
2023/05/25 12:05:55;;;;;;;;;;;;;;;17.45;81.50;96399.69;5055953;28;20607;-76
2023/05/25 12:08:31;;;;;;;;;;;;;;;17.48;79.71;96391.59;5055563;28;20298;-76
2023/05/25 12:10:59;;;;;;;;;;;;;;;17.30;81.98;96388.66;5056800;28;20423;-76
2023/05/25 12:13:26;;;;;;;;;;;;;;;17.49;84.49;96399.31;5057197;28;19935;-76
2023/05/25 12:15:56;;;;;;;;;;;;;;;17.63;82.24;96396.41;5065502;28;19932;-76
2023/05/25 12:18:22;;;;;;;;;;;;;;;17.57;81.59;96386.44;5057232;28;20462;-76
2023/05/25 12:20:49;;;;;;;;;;;;;;;17.79;80.13;96388.16;5057361;28;19932;-76
2023/05/25 12:23:16;;;;;;;;;;;;;;;17.37;79.98;96385.44;5041823;28;19968;-76
2023/05/25 12:25:42;;;;;;;;;;;;;;;17.95;88.12;96381.66;5055147;28;19925;-77
2023/05/25 12:28:13;;;;;;;;;;;;;;;17.92;78.24;96382.78;5046544;28;19925;-77
2023/05/25 12:30:40;;;;;;;;;;;;;;;18.00;78.35;96385.59;5062321;28;19931;-77
2023/05/25 12:33:06;;;;;;;;;;;;;;;18.16;83.59;96386.94;5049998;28;19924;-77
2023/05/25 12:35:43;;;;;;;;;;;;;;;18.11;78.64;96385.53;5047591;28;19928;-77
2023/05/25 12:38:10;;;;;;;;;;;;;;;17.86;77.17;96391.13;5054565;28;19928;-77
2023/05/25 12:40:36;;;;;;;;;;;;;;;18.14;75.16;96387.91;5056808;28;20019;-77
2023/05/25 12:43:03;;;;;;;;;;;;;;;18.10;77.41;96391.72;5053934;28;20581;-77
2023/05/25 12:45:30;;;;;;;;;;;;;;;17.94;77.83;96390.50;5048829;28;19928;-75